createdAt,value
2018-10-05T00:00:37.995Z,8.30
2018-10-05T00:03:08.138Z,8.30
2018-10-05T00:05:37.282Z,8.30
2018-10-05T00:08:08.621Z,8.30
2018-10-05T00:10:40.811Z,8.30
2018-10-05T00:13:10.980Z,8.30
2018-10-05T00:15:42.246Z,8.20
2018-10-05T00:18:11.757Z,8.20
2018-10-05T00:20:40.493Z,8.20
2018-10-05T00:23:09.786Z,8.20
2018-10-05T00:25:38.627Z,8.30
2018-10-05T00:28:07.177Z,8.30
2018-10-05T00:30:35.969Z,8.30
2018-10-05T00:33:06.741Z,8.20
2018-10-05T00:35:35.411Z,8.20
2018-10-05T00:38:05.189Z,8.20
2018-10-05T00:40:33.876Z,8.10
2018-10-05T00:43:03.762Z,8.10
2018-10-05T00:45:32.873Z,8.00
2018-10-05T00:48:01.401Z,8.00
2018-10-05T00:50:31.782Z,8.00
2018-10-05T00:53:00.713Z,7.90
2018-10-05T00:55:29.585Z,8.00
2018-10-05T00:57:59.343Z,8.00
2018-10-05T01:00:28.739Z,7.90
2018-10-05T01:02:57.324Z,7.90
2018-10-05T01:05:26.220Z,7.80
2018-10-05T01:07:54.815Z,7.90
2018-10-05T01:10:23.424Z,7.80
2018-10-05T01:12:53.020Z,7.80
2018-10-05T01:15:22.041Z,7.70
2018-10-05T01:17:50.534Z,7.80
2018-10-05T01:20:19.122Z,7.80
2018-10-05T01:22:48.221Z,7.80
2018-10-05T01:25:17.258Z,7.80
2018-10-05T01:27:47.052Z,7.80
2018-10-05T01:30:15.926Z,7.90
2018-10-05T01:32:44.651Z,7.90
2018-10-05T01:35:15.582Z,7.80
2018-10-05T01:37:45.146Z,7.70
2018-10-05T01:40:14.400Z,7.60
2018-10-05T01:42:43.368Z,7.60
2018-10-05T01:45:12.430Z,7.60
2018-10-05T01:47:42.729Z,7.60
2018-10-05T01:50:11.855Z,7.60
2018-10-05T01:52:40.595Z,7.60
2018-10-05T01:55:09.206Z,7.50
2018-10-05T01:57:38.666Z,7.50
2018-10-05T02:00:07.936Z,7.50
2018-10-05T02:02:36.589Z,7.50
2018-10-05T02:05:05.167Z,7.50
2018-10-05T02:07:33.790Z,7.40
2018-10-05T02:10:02.244Z,7.40
2018-10-05T02:12:31.872Z,7.50
2018-10-05T02:15:00.343Z,7.50
2018-10-05T02:17:28.843Z,7.40
2018-10-05T02:19:57.249Z,7.30
2018-10-05T02:22:25.761Z,7.40
2018-10-05T02:24:54.212Z,7.30
2018-10-05T02:27:23.103Z,7.40
2018-10-05T02:29:51.723Z,7.30
2018-10-05T02:32:20.361Z,7.30
2018-10-05T02:34:48.843Z,7.30
2018-10-05T02:37:17.298Z,7.20
2018-10-05T02:39:47.005Z,7.20
2018-10-05T02:42:15.398Z,7.30
2018-10-05T02:44:45.792Z,7.20
2018-10-05T02:47:14.180Z,7.20
2018-10-05T02:49:42.719Z,7.20
2018-10-05T02:52:11.146Z,7.20
2018-10-05T02:54:39.868Z,7.20
2018-10-05T02:57:08.412Z,7.30
2018-10-05T02:59:37.738Z,7.30
2018-10-05T03:02:15.537Z,7.30
2018-10-05T03:04:43.987Z,7.30
2018-10-05T03:07:12.859Z,7.20
2018-10-05T03:09:41.418Z,7.20
2018-10-05T03:12:10.105Z,7.10
2018-10-05T03:14:38.595Z,7.10
2018-10-05T03:17:07.642Z,7.00
2018-10-05T03:19:36.468Z,7.00
2018-10-05T03:22:05.188Z,7.00
2018-10-05T03:24:33.694Z,7.00
2018-10-05T03:27:02.443Z,7.00
2018-10-05T03:29:31.133Z,7.00
2018-10-05T03:32:00.178Z,7.00
2018-10-05T03:34:28.660Z,7.00
2018-10-05T03:36:57.115Z,6.90
2018-10-05T03:39:26.633Z,7.00
2018-10-05T03:41:56.704Z,7.00
2018-10-05T03:44:25.250Z,7.00
2018-10-05T03:46:53.987Z,7.00
2018-10-05T03:49:22.635Z,7.00
2018-10-05T03:51:51.050Z,7.00
2018-10-05T03:54:20.160Z,6.90
2018-10-05T03:56:49.061Z,6.90
2018-10-05T03:59:18.083Z,6.90
2018-10-05T04:01:46.765Z,6.90
2018-10-05T04:04:15.311Z,6.90
2018-10-05T04:06:44.002Z,6.90
2018-10-05T04:09:12.834Z,6.80
2018-10-05T04:11:41.372Z,6.80
2018-10-05T04:14:11.106Z,6.70
2018-10-05T04:16:39.725Z,6.70
2018-10-05T04:19:09.510Z,6.60
2018-10-05T04:21:37.992Z,6.70
2018-10-05T04:24:06.868Z,6.70
2018-10-05T04:26:35.426Z,6.70
2018-10-05T04:29:03.937Z,6.70
2018-10-05T04:31:32.974Z,6.70
2018-10-05T04:34:01.734Z,6.70
2018-10-05T04:36:30.571Z,6.70
2018-10-05T04:39:01.002Z,6.70
2018-10-05T04:41:29.557Z,6.60
2018-10-05T04:43:58.096Z,6.70
2018-10-05T04:46:26.961Z,6.70
2018-10-05T04:48:55.400Z,6.70
2018-10-05T04:51:24.137Z,6.70
2018-10-05T04:53:52.784Z,6.80
2018-10-05T04:56:21.388Z,6.80
2018-10-05T04:58:50.069Z,6.80
2018-10-05T05:01:18.637Z,6.80
2018-10-05T05:03:47.163Z,6.80
2018-10-05T05:06:15.596Z,6.90
2018-10-05T05:08:44.132Z,6.90
2018-10-05T05:11:12.703Z,7.00
2018-10-05T05:13:41.143Z,7.00
2018-10-05T05:16:09.814Z,7.00
2018-10-05T05:18:38.433Z,7.00
2018-10-05T05:21:07.150Z,7.00
2018-10-05T05:23:35.582Z,7.00
2018-10-05T05:26:04.062Z,7.00
2018-10-05T05:28:32.822Z,7.00
2018-10-05T05:31:05.636Z,7.00
2018-10-05T05:33:34.372Z,7.00
2018-10-05T05:36:02.863Z,7.00
2018-10-05T05:38:34.281Z,7.00
2018-10-05T05:41:02.861Z,7.00
2018-10-05T05:43:31.476Z,7.00
2018-10-05T05:46:00.161Z,7.10
2018-10-05T05:48:28.856Z,7.00
2018-10-05T05:50:59.095Z,7.10
2018-10-05T05:53:28.315Z,7.10
2018-10-05T05:55:57.786Z,7.20
2018-10-05T05:58:26.177Z,7.30
2018-10-05T06:00:54.709Z,7.60
2018-10-05T06:03:24.061Z,7.60
2018-10-05T06:05:52.784Z,7.80
2018-10-05T06:08:21.408Z,8.30
2018-10-05T06:10:50.066Z,8.80
2018-10-05T06:13:18.760Z,9.20
2018-10-05T06:15:47.382Z,9.60
2018-10-05T06:18:16.232Z,9.90
2018-10-05T06:20:48.643Z,10.20
2018-10-05T06:23:17.229Z,10.50
2018-10-05T06:25:46.163Z,10.70
2018-10-05T06:28:14.765Z,10.90
2018-10-05T06:30:43.670Z,10.90
2018-10-05T06:33:13.018Z,10.90
2018-10-05T06:35:41.590Z,11.00
2018-10-05T06:38:10.353Z,11.10
2018-10-05T06:40:38.912Z,11.30
2018-10-05T06:43:07.997Z,11.80
2018-10-05T06:45:37.403Z,12.00
2018-10-05T06:48:06.382Z,11.90
2018-10-05T06:50:35.085Z,12.00
2018-10-05T06:53:03.792Z,12.00
2018-10-05T06:55:32.325Z,12.30
2018-10-05T06:58:00.895Z,12.50
2018-10-05T07:00:29.475Z,12.70
2018-10-05T07:02:58.587Z,12.90
2018-10-05T07:05:27.069Z,13.00
2018-10-05T07:07:55.898Z,13.30
2018-10-05T07:10:27.765Z,13.30
2018-10-05T07:13:01.042Z,13.70
2018-10-05T07:15:30.801Z,13.80
2018-10-05T07:18:03.211Z,14.20
2018-10-05T07:20:34.818Z,14.30
2018-10-05T07:23:05.157Z,14.60
2018-10-05T07:25:34.775Z,14.70
2018-10-05T07:28:06.397Z,14.90
2018-10-05T07:30:40.444Z,15.10
2018-10-05T07:33:10.752Z,15.40
2018-10-05T07:35:43.246Z,15.40
2018-10-05T07:38:13.914Z,15.40
2018-10-05T07:40:47.313Z,15.50
2018-10-05T07:43:17.585Z,15.90
2018-10-05T07:45:53.683Z,16.10
2018-10-05T07:48:25.796Z,16.70
2018-10-05T07:51:07.779Z,17.50
2018-10-05T07:53:42.731Z,18.20
2018-10-05T07:56:15.860Z,18.20
2018-10-05T07:58:45.167Z,18.50
2018-10-05T08:01:21.053Z,17.90
2018-10-05T08:03:56.154Z,16.30
2018-10-05T08:06:29.084Z,16.30
2018-10-05T08:09:06.877Z,17.20
2018-10-05T08:11:40.010Z,17.10
2018-10-05T08:14:12.087Z,17.40
2018-10-05T08:16:44.954Z,17.60
2018-10-05T08:19:14.526Z,18.10
2018-10-05T08:21:47.984Z,18.50
2018-10-05T08:24:29.827Z,18.40
2018-10-05T08:27:03.074Z,18.60
2018-10-05T08:29:33.616Z,19.00
2018-10-05T08:32:04.654Z,19.20
2018-10-05T08:34:38.305Z,19.20
2018-10-05T08:37:13.795Z,19.40
2018-10-05T08:39:48.103Z,20.40
2018-10-05T08:42:19.621Z,21.10
2018-10-05T08:44:51.683Z,20.70
2018-10-05T08:47:22.701Z,21.00
2018-10-05T08:49:56.630Z,20.80
2018-10-05T08:52:31.496Z,20.20
2018-10-05T08:55:09.371Z,19.80
2018-10-05T08:57:41.776Z,20.40
2018-10-05T09:00:16.569Z,21.60
2018-10-05T09:02:47.169Z,21.10
2018-10-05T09:05:22.501Z,20.90
2018-10-05T09:07:54.459Z,21.40
2018-10-05T09:10:27.196Z,21.40
2018-10-05T09:13:01.758Z,21.20
2018-10-05T09:15:34.340Z,21.10
2018-10-05T09:18:07.507Z,21.50
2018-10-05T09:20:38.778Z,21.80
2018-10-05T09:23:12.721Z,22.30
2018-10-05T09:25:43.540Z,23.20
2018-10-05T09:28:17.144Z,23.30
2018-10-05T09:30:51.301Z,23.00
2018-10-05T09:33:22.420Z,23.40
2018-10-05T09:35:57.584Z,23.00
2018-10-05T09:38:28.763Z,22.90
2018-10-05T09:41:03.996Z,22.80
2018-10-05T09:43:37.576Z,23.00
2018-10-05T09:46:12.206Z,23.20
2018-10-05T09:48:42.586Z,24.00
2018-10-05T09:51:12.879Z,24.20
2018-10-05T09:53:41.318Z,24.40
2018-10-05T09:56:10.625Z,23.90
2018-10-05T09:58:40.176Z,23.50
2018-10-05T10:01:13.929Z,23.80
2018-10-05T10:03:42.929Z,23.90
2018-10-05T10:06:12.402Z,23.70
2018-10-05T10:08:41.559Z,23.70
2018-10-05T10:11:11.220Z,23.50
2018-10-05T10:13:41.215Z,23.20
2018-10-05T10:16:12.980Z,22.70
2018-10-05T10:18:42.361Z,22.60
2018-10-05T10:21:11.405Z,22.40
2018-10-05T10:23:40.211Z,22.20
2018-10-05T10:26:08.994Z,22.30
2018-10-05T10:28:38.192Z,22.60
2018-10-05T10:31:08.544Z,22.90
2018-10-05T10:33:37.395Z,22.70
2018-10-05T10:36:07.543Z,22.50
2018-10-05T10:38:40.749Z,22.40
2018-10-05T10:41:10.420Z,22.70
2018-10-05T10:43:41.304Z,23.20
2018-10-05T10:46:11.044Z,23.60
2018-10-05T10:48:41.034Z,23.90
2018-10-05T10:51:12.957Z,23.80
2018-10-05T10:53:44.186Z,23.40
2018-10-05T10:56:15.301Z,23.30
2018-10-05T10:58:43.993Z,23.10
2018-10-05T11:01:13.721Z,23.30
2018-10-05T11:03:42.888Z,23.50
2018-10-05T11:06:13.043Z,23.90
2018-10-05T11:08:43.514Z,24.20
2018-10-05T11:11:13.299Z,24.40
2018-10-05T11:13:43.972Z,24.80
2018-10-05T11:16:12.803Z,24.60
2018-10-05T11:18:56.542Z,24.10
2018-10-05T11:21:28.735Z,23.90
2018-10-05T11:24:01.434Z,23.90
2018-10-05T11:26:31.861Z,24.20
2018-10-05T11:29:01.538Z,24.80
2018-10-05T11:31:31.623Z,25.30
2018-10-05T11:34:03.987Z,25.50
2018-10-05T11:36:33.116Z,25.80
2018-10-05T11:39:04.318Z,25.50
2018-10-05T11:41:38.225Z,25.30
2018-10-05T11:44:09.928Z,25.40
2018-10-05T11:46:39.063Z,25.30
2018-10-05T11:49:15.373Z,25.10
2018-10-05T11:51:47.419Z,25.00
2018-10-05T11:54:16.793Z,25.10
2018-10-05T11:56:53.553Z,25.20
2018-10-05T11:59:25.816Z,25.20
2018-10-05T12:01:58.349Z,25.20
2018-10-05T12:04:40.912Z,24.90
2018-10-05T12:09:58.321Z,23.80
2018-10-05T12:12:29.280Z,23.30
2018-10-05T12:15:06.378Z,23.10
2018-10-05T12:17:37.580Z,23.10
2018-10-05T12:20:16.104Z,23.20
2018-10-05T12:22:45.537Z,23.20
2018-10-05T12:25:14.800Z,23.20
2018-10-05T12:28:06.708Z,23.10
2018-10-05T12:30:37.514Z,23.00
2018-10-05T12:33:06.876Z,23.00
2018-10-05T12:35:38.737Z,23.00
2018-10-05T12:38:08.798Z,22.90
2018-10-05T12:40:37.487Z,22.60
2018-10-05T12:43:06.116Z,22.40
2018-10-05T12:45:36.862Z,22.30
2018-10-05T12:48:05.636Z,22.40
2018-10-05T12:50:34.335Z,22.60
2018-10-05T12:53:04.298Z,22.60
2018-10-05T12:55:32.837Z,22.40
2018-10-05T12:58:06.486Z,22.30
2018-10-05T13:00:35.048Z,22.20
2018-10-05T13:03:09.763Z,22.20
2018-10-05T13:05:39.488Z,22.20
2018-10-05T13:08:09.150Z,22.20
2018-10-05T13:10:38.208Z,22.30
2018-10-05T13:13:14.408Z,22.80
2018-10-05T13:15:45.432Z,24.00
2018-10-05T13:18:15.079Z,24.80
2018-10-05T13:20:48.135Z,24.50
2018-10-05T13:23:47.375Z,24.30
2018-10-05T13:26:17.054Z,23.90
2018-10-05T13:28:45.646Z,23.30
2018-10-05T13:31:15.520Z,22.90
2018-10-05T13:33:44.333Z,22.80
2018-10-05T13:36:12.856Z,22.80
2018-10-05T13:38:41.433Z,22.70
2018-10-05T13:41:11.365Z,22.60
2018-10-05T13:43:40.932Z,22.60
2018-10-05T13:46:09.811Z,22.60
2018-10-05T13:48:38.469Z,22.70
2018-10-05T13:51:08.083Z,22.70
2018-10-05T13:53:36.749Z,22.70
2018-10-05T13:56:05.506Z,22.70
2018-10-05T13:58:34.965Z,22.70
2018-10-05T14:01:03.373Z,22.80
2018-10-05T14:03:33.434Z,22.80
2018-10-05T14:08:43.482Z,22.70
2018-10-05T14:11:12.780Z,22.70
2018-10-05T14:13:41.236Z,22.80
2018-10-05T14:16:09.625Z,22.90
2018-10-05T14:18:38.071Z,23.00
2018-10-05T14:21:06.694Z,23.00
2018-10-05T14:23:35.121Z,23.00
2018-10-05T14:26:03.721Z,23.00
2018-10-05T14:28:32.290Z,23.00
2018-10-05T14:31:01.667Z,23.00
2018-10-05T14:33:30.115Z,23.00
2018-10-05T14:35:58.599Z,23.00
2018-10-05T14:38:27.019Z,23.00
2018-10-05T14:40:55.758Z,22.90
2018-10-05T14:43:24.600Z,22.90
2018-10-05T14:45:53.365Z,22.80
2018-10-05T14:48:21.746Z,22.80
2018-10-05T14:50:50.318Z,22.90
2018-10-05T14:53:18.828Z,22.80
2018-10-05T14:55:47.406Z,22.70
2018-10-05T14:58:15.853Z,22.70
2018-10-05T15:00:44.948Z,22.60
2018-10-05T15:03:16.246Z,22.60
2018-10-05T15:05:44.714Z,22.60
2018-10-05T15:08:14.786Z,22.70
2018-10-05T15:10:48.653Z,22.70
2018-10-05T15:13:19.392Z,22.60
2018-10-05T15:15:49.704Z,22.60
2018-10-05T15:18:23.100Z,22.70
2018-10-05T15:20:51.940Z,22.70
2018-10-05T15:23:20.655Z,22.70
2018-10-05T15:25:50.448Z,22.60
2018-10-05T15:28:21.658Z,22.60
2018-10-05T15:30:53.227Z,22.60
2018-10-05T15:33:22.944Z,22.50
2018-10-05T15:35:53.346Z,22.50
2018-10-05T15:38:23.756Z,22.50
2018-10-05T15:40:54.882Z,22.50
2018-10-05T15:43:25.364Z,22.50
2018-10-05T15:46:08.536Z,22.50
2018-10-05T15:48:39.888Z,22.50
2018-10-05T15:51:24.568Z,22.40
2018-10-05T15:53:58.206Z,22.40
2018-10-05T15:56:27.105Z,22.30
2018-10-05T15:58:55.639Z,22.20
2018-10-05T16:01:29.379Z,22.20
2018-10-05T16:04:01.821Z,22.20
2018-10-05T16:06:31.098Z,22.00
2018-10-05T16:09:06.680Z,22.00
2018-10-05T16:11:35.276Z,22.00
2018-10-05T16:14:04.656Z,21.90
2018-10-05T16:16:33.199Z,21.80
2018-10-05T16:19:03.768Z,21.70
2018-10-05T16:21:32.874Z,21.60
2018-10-05T16:24:03.852Z,21.40
2018-10-05T16:26:35.010Z,21.30
2018-10-05T16:29:07.841Z,21.20
2018-10-05T16:31:51.940Z,21.10
2018-10-05T16:34:21.798Z,21.00
2018-10-05T16:36:50.482Z,20.90
2018-10-05T16:39:25.246Z,20.80
2018-10-05T16:42:00.108Z,20.60
2018-10-05T16:44:28.830Z,20.40
2018-10-05T16:46:58.925Z,20.40
2018-10-05T16:49:27.357Z,20.40
2018-10-05T16:52:17.301Z,20.40
2018-10-05T16:54:53.752Z,20.30
2018-10-05T16:57:24.138Z,20.00
2018-10-05T16:59:54.792Z,19.70
2018-10-05T17:02:27.025Z,19.60
2018-10-05T17:05:01.658Z,19.40
2018-10-05T17:07:33.692Z,19.30
2018-10-05T17:10:12.626Z,19.20
2018-10-05T17:12:49.389Z,19.10
2018-10-05T17:15:19.901Z,18.90
2018-10-05T17:17:54.041Z,18.80
2018-10-05T17:20:36.338Z,18.60
2018-10-05T17:23:10.106Z,18.50
2018-10-05T17:25:41.179Z,18.60
2018-10-05T17:28:10.123Z,18.60
2018-10-05T17:30:40.295Z,18.60
2018-10-05T17:33:10.619Z,18.60
2018-10-05T17:35:42.692Z,18.50
2018-10-05T17:38:11.996Z,18.40
2018-10-05T17:40:40.475Z,18.40
2018-10-05T17:43:08.960Z,18.30
2018-10-05T17:45:37.537Z,18.20
2018-10-05T17:48:06.484Z,18.10
2018-10-05T17:50:36.494Z,17.90
2018-10-05T17:53:06.272Z,17.80
2018-10-05T17:55:35.130Z,17.60
2018-10-05T17:58:06.029Z,17.50
2018-10-05T18:00:43.902Z,17.40
2018-10-05T18:03:40.989Z,17.30
2018-10-05T18:06:14.872Z,17.30
2018-10-05T18:08:43.474Z,17.20
2018-10-05T18:11:12.002Z,17.20
2018-10-05T18:13:40.893Z,17.10
2018-10-05T18:16:09.407Z,17.10
2018-10-05T18:18:39.082Z,17.00
2018-10-05T18:21:08.590Z,16.90
2018-10-05T18:23:40.905Z,16.80
2018-10-05T18:26:09.510Z,16.80
2018-10-05T18:28:38.272Z,16.90
2018-10-05T18:31:07.561Z,16.90
2018-10-05T18:33:35.950Z,16.90
2018-10-05T18:36:04.573Z,16.90
2018-10-05T18:38:33.930Z,16.90
2018-10-05T18:41:03.046Z,16.90
2018-10-05T18:43:32.374Z,16.90
2018-10-05T18:46:02.152Z,16.80
2018-10-05T18:48:31.185Z,16.80
2018-10-05T18:51:00.452Z,16.70
2018-10-05T18:53:29.776Z,16.70
2018-10-05T18:56:07.328Z,16.60
2018-10-05T18:58:41.642Z,16.50
2018-10-05T19:01:10.098Z,16.50
2018-10-05T19:03:39.191Z,16.40
2018-10-05T19:06:07.746Z,16.40
2018-10-05T19:08:37.269Z,16.30
2018-10-05T19:11:05.884Z,16.20
2018-10-05T19:13:38.569Z,16.10
2018-10-05T19:16:08.309Z,16.00
2018-10-05T19:18:36.937Z,15.90
2018-10-05T19:21:06.897Z,15.80
2018-10-05T19:23:36.049Z,15.70
2018-10-05T19:26:04.666Z,15.60
2018-10-05T19:28:33.259Z,15.50
2018-10-05T19:31:01.899Z,15.40
2018-10-05T19:33:30.362Z,15.30
2018-10-05T19:35:59.372Z,15.20
2018-10-05T19:44:33.700Z,14.60
2018-10-05T19:47:02.122Z,14.50
2018-10-05T19:49:30.879Z,14.40
2018-10-05T19:51:59.313Z,14.30
2018-10-05T19:54:28.284Z,14.20
2018-10-05T19:56:58.746Z,14.10
2018-10-05T19:59:27.363Z,14.00
2018-10-05T20:01:55.976Z,13.90
2018-10-05T20:04:25.441Z,13.80
2018-10-05T20:06:54.248Z,13.80
2018-10-05T20:09:22.979Z,13.60
2018-10-05T20:11:53.359Z,13.60
2018-10-05T20:14:22.101Z,13.60
2018-10-05T20:16:56.751Z,13.60
2018-10-05T20:19:25.363Z,13.50
2018-10-05T20:21:53.955Z,13.50
2018-10-05T20:24:25.646Z,13.50
2018-10-05T20:26:54.026Z,13.50
2018-10-05T20:29:22.561Z,13.50
2018-10-05T20:31:51.089Z,13.60
2018-10-05T20:34:22.251Z,13.50
2018-10-05T20:39:34.954Z,13.50
2018-10-05T20:42:05.908Z,13.40
2018-10-05T20:44:36.395Z,13.30
2018-10-05T20:47:06.660Z,13.20
2018-10-05T20:49:35.519Z,13.10
2018-10-05T20:52:07.219Z,13.00
2018-10-05T20:54:36.170Z,13.00
2018-10-05T20:57:04.649Z,13.00
2018-10-05T20:59:33.111Z,13.00
2018-10-05T21:02:01.676Z,12.90
2018-10-05T21:04:30.107Z,12.80
2018-10-05T21:06:58.753Z,12.90
2018-10-05T21:09:27.182Z,12.90
2018-10-05T21:11:55.609Z,12.90
2018-10-05T21:14:24.025Z,12.80
2018-10-05T21:16:52.495Z,12.70
2018-10-05T21:19:20.832Z,12.60
2018-10-05T21:21:49.238Z,12.60
2018-10-05T21:24:17.693Z,12.50
2018-10-05T21:26:46.392Z,12.30
2018-10-05T21:29:14.839Z,12.20
2018-10-05T21:31:44.473Z,12.00
2018-10-05T21:34:13.107Z,12.00
2018-10-05T21:36:41.604Z,11.90
2018-10-05T21:39:11.397Z,11.90
2018-10-05T21:41:40.920Z,11.80
2018-10-05T21:44:09.307Z,11.90
2018-10-05T21:46:38.621Z,11.90
2018-10-05T21:49:07.348Z,12.00
2018-10-05T21:51:35.863Z,12.10
2018-10-05T21:54:04.417Z,12.10
2018-10-05T21:56:33.001Z,12.00
2018-10-05T21:59:01.859Z,12.00
2018-10-05T22:01:30.473Z,11.90
2018-10-05T22:03:58.948Z,11.80
2018-10-05T22:06:27.372Z,11.60
2018-10-05T22:08:55.816Z,11.60
2018-10-05T22:11:24.229Z,11.80
2018-10-05T22:13:53.481Z,12.00
2018-10-05T22:16:21.916Z,12.30
2018-10-05T22:18:51.699Z,12.40
2018-10-05T22:21:20.022Z,12.50
2018-10-05T22:23:48.391Z,12.50
2018-10-05T22:26:17.673Z,12.50
2018-10-05T22:28:46.144Z,12.60
2018-10-05T22:31:14.607Z,12.70
2018-10-05T22:33:43.033Z,12.70
2018-10-05T22:36:11.790Z,12.80
2018-10-05T22:38:40.239Z,12.70
2018-10-05T22:41:08.836Z,12.70
2018-10-05T22:43:37.320Z,12.70
2018-10-05T22:46:06.704Z,12.70
2018-10-05T22:48:36.003Z,12.60
2018-10-05T22:51:06.873Z,12.50
2018-10-05T22:53:35.672Z,12.30
2018-10-05T22:56:05.231Z,12.10
2018-10-05T22:58:34.163Z,11.80
2018-10-05T23:01:02.740Z,11.60
2018-10-05T23:03:31.886Z,11.50
2018-10-05T23:06:00.452Z,11.30
2018-10-05T23:08:28.997Z,11.20
2018-10-05T23:10:57.339Z,11.10
2018-10-05T23:13:25.754Z,11.00
2018-10-05T23:15:54.316Z,11.00
2018-10-05T23:18:24.622Z,10.90
2018-10-05T23:20:53.193Z,10.90
2018-10-05T23:23:23.275Z,10.80
2018-10-05T23:25:51.700Z,10.80
2018-10-05T23:28:20.217Z,10.80
2018-10-05T23:30:48.670Z,10.80
2018-10-05T23:33:17.188Z,11.00
2018-10-05T23:35:45.747Z,11.00
2018-10-05T23:38:14.174Z,11.00
2018-10-05T23:40:42.849Z,11.00
2018-10-05T23:43:11.509Z,10.90
2018-10-05T23:45:39.860Z,10.80
2018-10-05T23:48:08.395Z,10.90
2018-10-05T23:50:36.819Z,11.00
2018-10-05T23:53:05.155Z,11.10
2018-10-05T23:55:33.882Z,10.90
2018-10-05T23:58:02.407Z,10.70
